createdAt,value
2019-02-08T00:02:03.811Z,6.70
2019-02-08T00:04:29.841Z,6.70
2019-02-08T00:06:55.847Z,6.70
2019-02-08T00:09:21.883Z,6.70
2019-02-08T00:11:48.212Z,6.70
2019-02-08T00:14:14.228Z,6.70
2019-02-08T00:16:40.339Z,6.80
2019-02-08T00:19:06.358Z,6.80
2019-02-08T00:21:32.366Z,6.80
2019-02-08T00:23:58.410Z,6.90
2019-02-08T00:26:24.441Z,7.00
2019-02-08T00:28:50.483Z,7.00
2019-02-08T00:31:16.508Z,7.10
2019-02-08T00:33:42.810Z,7.10
2019-02-08T00:36:08.835Z,7.00
2019-02-08T00:38:34.960Z,7.00
2019-02-08T00:41:01.046Z,7.10
2019-02-08T00:43:27.072Z,7.00
2019-02-08T00:45:53.095Z,7.00
2019-02-08T00:48:19.127Z,7.00
2019-02-08T00:50:45.138Z,6.90
2019-02-08T00:53:11.171Z,7.00
2019-02-08T00:55:37.699Z,6.90
2019-02-08T00:58:03.840Z,6.90
2019-02-08T01:00:29.848Z,6.90
2019-02-08T01:02:55.886Z,6.90
2019-02-08T01:05:25.848Z,6.80
2019-02-08T01:07:51.883Z,6.80
2019-02-08T01:10:23.210Z,6.90
2019-02-08T01:12:49.240Z,6.90
2019-02-08T01:15:17.259Z,6.90
2019-02-08T01:17:43.291Z,6.90
2019-02-08T01:20:14.976Z,6.90
2019-02-08T01:22:41.028Z,6.90
2019-02-08T01:25:10.348Z,6.90
2019-02-08T01:27:36.379Z,6.90
2019-02-08T01:30:05.320Z,6.90
2019-02-08T01:32:31.328Z,6.90
2019-02-08T01:34:57.358Z,6.90
2019-02-08T01:37:23.387Z,6.90
2019-02-08T01:39:49.415Z,6.90
2019-02-08T01:42:15.446Z,6.80
2019-02-08T01:44:41.498Z,6.70
2019-02-08T01:47:07.583Z,6.70
2019-02-08T01:49:33.639Z,6.60
2019-02-08T01:51:59.651Z,6.60
2019-02-08T01:54:25.667Z,6.50
2019-02-08T01:56:51.699Z,6.50
2019-02-08T01:59:17.743Z,6.30
2019-02-08T02:01:43.782Z,6.20
2019-02-08T02:04:09.820Z,6.10
2019-02-08T02:06:35.906Z,6.00
2019-02-08T02:09:03.640Z,5.90
2019-02-08T02:11:29.651Z,5.90
2019-02-08T02:13:55.688Z,5.80
2019-02-08T02:16:21.707Z,5.80
2019-02-08T02:18:47.744Z,5.80
2019-02-08T02:21:13.775Z,5.90
2019-02-08T02:23:39.820Z,5.90
2019-02-08T02:26:05.832Z,5.90
2019-02-08T02:28:31.878Z,6.00
2019-02-08T02:30:57.887Z,6.00
2019-02-08T02:33:23.919Z,6.10
2019-02-08T02:35:49.943Z,6.20
2019-02-08T02:38:15.949Z,6.10
2019-02-08T02:40:42.042Z,6.10
2019-02-08T02:43:08.044Z,6.10
2019-02-08T02:45:36.135Z,6.10
2019-02-08T02:48:03.551Z,6.20
2019-02-08T02:50:29.596Z,6.20
2019-02-08T02:52:55.616Z,6.20
2019-02-08T02:55:26.555Z,6.30
2019-02-08T02:57:52.592Z,6.20
2019-02-08T03:00:22.371Z,6.20
2019-02-08T03:02:48.411Z,6.20
2019-02-08T03:05:14.427Z,6.20
2019-02-08T03:07:40.483Z,6.20
2019-02-08T03:10:10.103Z,6.30
2019-02-08T03:12:36.155Z,6.40
2019-02-08T03:15:04.100Z,6.40
2019-02-08T03:17:30.115Z,6.50
2019-02-08T03:19:56.152Z,6.50
2019-02-08T03:22:22.179Z,6.50
2019-02-08T03:24:48.225Z,6.50
2019-02-08T03:27:14.240Z,6.50
2019-02-08T03:29:40.317Z,6.50
2019-02-08T03:32:06.318Z,6.60
2019-02-08T03:34:32.355Z,6.60
2019-02-08T03:36:58.379Z,6.60
2019-02-08T03:39:24.411Z,6.70
2019-02-08T03:41:50.443Z,6.70
2019-02-08T03:44:16.516Z,6.70
2019-02-08T03:46:42.532Z,6.70
2019-02-08T03:49:08.565Z,6.80
2019-02-08T03:51:34.573Z,6.80
2019-02-08T03:54:00.700Z,6.80
2019-02-08T03:56:26.736Z,6.80
2019-02-08T03:58:52.819Z,6.90
2019-02-08T04:01:18.851Z,6.90
2019-02-08T04:03:44.887Z,6.90
2019-02-08T04:06:10.898Z,6.90
2019-02-08T04:08:36.937Z,6.90
2019-02-08T04:11:02.989Z,6.90
2019-02-08T04:13:28.984Z,6.90
2019-02-08T04:15:55.128Z,6.90
2019-02-08T04:18:21.170Z,6.90
2019-02-08T04:20:47.271Z,7.00
2019-02-08T04:23:13.291Z,6.90
2019-02-08T04:25:39.351Z,7.00
2019-02-08T04:28:05.387Z,7.10
2019-02-08T04:30:31.395Z,7.20
2019-02-08T04:32:59.130Z,7.20
2019-02-08T04:35:25.155Z,7.30
2019-02-08T04:37:51.196Z,7.30
2019-02-08T04:40:18.711Z,7.40
2019-02-08T04:42:44.855Z,7.40
2019-02-08T04:45:10.864Z,7.40
2019-02-08T04:47:36.876Z,7.40
2019-02-08T04:50:06.537Z,7.40
2019-02-08T04:52:32.580Z,7.30
2019-02-08T04:54:58.706Z,7.30
2019-02-08T04:57:24.715Z,7.20
2019-02-08T04:59:50.927Z,7.20
2019-02-08T05:02:19.390Z,7.20
2019-02-08T05:04:45.390Z,7.30
2019-02-08T05:07:11.503Z,7.20
2019-02-08T05:09:37.548Z,7.10
2019-02-08T05:12:03.793Z,7.20
2019-02-08T05:14:29.879Z,7.20
2019-02-08T05:16:55.889Z,7.20
2019-02-08T05:19:21.936Z,7.20
2019-02-08T05:21:48.038Z,7.20
2019-02-08T05:24:14.186Z,7.20
2019-02-08T05:26:40.279Z,7.10
2019-02-08T05:29:06.324Z,7.10
2019-02-08T05:31:32.423Z,7.00
2019-02-08T05:33:58.449Z,7.00
2019-02-08T05:36:27.549Z,7.10
2019-02-08T05:38:53.628Z,7.10
2019-02-08T05:41:19.665Z,7.10
2019-02-08T05:43:45.679Z,7.10
2019-02-08T05:46:11.756Z,7.10
2019-02-08T05:48:37.768Z,7.10
2019-02-08T05:51:03.800Z,7.10
2019-02-08T05:53:29.809Z,7.00
2019-02-08T05:55:55.879Z,7.10
2019-02-08T05:58:21.896Z,7.10
2019-02-08T06:00:49.859Z,7.10
2019-02-08T06:03:15.880Z,7.10
2019-02-08T06:05:42.230Z,7.10
2019-02-08T06:08:08.240Z,7.00
2019-02-08T06:10:34.452Z,7.00
2019-02-08T06:13:00.596Z,7.00
2019-02-08T06:15:26.630Z,7.00
2019-02-08T06:17:52.840Z,7.10
2019-02-08T06:20:23.689Z,7.10
2019-02-08T06:22:49.750Z,7.20
2019-02-08T06:25:18.093Z,7.20
2019-02-08T06:27:44.117Z,7.20
2019-02-08T06:30:13.967Z,7.20
2019-02-08T06:32:39.990Z,7.20
2019-02-08T06:35:07.112Z,7.20
2019-02-08T06:37:33.268Z,7.20
2019-02-08T06:39:59.371Z,7.20
2019-02-08T06:42:25.405Z,7.20
2019-02-08T06:44:51.448Z,7.20
2019-02-08T06:47:17.457Z,7.20
2019-02-08T06:49:43.483Z,7.10
2019-02-08T06:52:09.523Z,7.10
2019-02-08T06:54:35.674Z,7.10
2019-02-08T06:57:03.596Z,7.10
2019-02-08T06:59:31.524Z,7.10
2019-02-08T07:01:59.431Z,7.00
2019-02-08T07:04:27.367Z,7.10
2019-02-08T07:06:55.284Z,7.10
2019-02-08T07:09:23.223Z,7.00
2019-02-08T07:11:51.146Z,7.10
2019-02-08T07:14:37.291Z,7.10
2019-02-08T07:17:07.982Z,7.10
2019-02-08T07:19:41.914Z,7.10
2019-02-08T07:22:09.829Z,7.00
2019-02-08T07:24:37.779Z,7.10
2019-02-08T07:27:08.235Z,7.10
2019-02-08T07:29:52.503Z,7.20
2019-02-08T07:32:37.295Z,7.20
2019-02-08T07:35:23.751Z,7.30
2019-02-08T07:38:06.775Z,7.30
2019-02-08T07:40:55.539Z,7.30
2019-02-08T07:43:26.207Z,7.30
2019-02-08T07:46:03.100Z,7.30
2019-02-08T07:48:43.075Z,7.30
2019-02-08T07:51:23.271Z,7.40
2019-02-08T07:54:07.791Z,7.40
2019-02-08T07:56:47.663Z,7.40
2019-02-08T07:59:31.947Z,7.30
2019-02-08T08:02:05.919Z,7.40
2019-02-08T08:04:50.481Z,7.40
2019-02-08T08:07:18.427Z,7.50
2019-02-08T08:09:46.372Z,7.50
2019-02-08T08:12:31.263Z,7.50
2019-02-08T08:15:02.521Z,7.50
2019-02-08T08:17:48.583Z,7.60
2019-02-08T08:20:28.236Z,7.50
2019-02-08T08:22:56.148Z,7.50
2019-02-08T08:25:24.203Z,7.60
2019-02-08T08:28:07.147Z,7.50
2019-02-08T08:30:47.440Z,7.60
2019-02-08T08:33:31.803Z,7.60
2019-02-08T08:36:10.495Z,7.60
2019-02-08T08:38:59.639Z,7.60
2019-02-08T08:41:46.355Z,7.60
2019-02-08T08:44:34.166Z,7.60
2019-02-08T08:47:13.420Z,7.60
2019-02-08T08:49:55.100Z,7.70
2019-02-08T08:52:27.931Z,7.70
2019-02-08T08:55:18.439Z,7.70
2019-02-08T08:58:12.288Z,7.80
2019-02-08T09:01:09.243Z,7.90
2019-02-08T09:03:50.839Z,8.00
2019-02-08T09:06:35.527Z,8.00
2019-02-08T09:09:31.599Z,8.00
2019-02-08T09:12:22.432Z,8.20
2019-02-08T09:15:11.972Z,8.20
2019-02-08T09:17:41.795Z,8.30
2019-02-08T09:20:45.715Z,8.20
2019-02-08T09:23:18.467Z,8.10
2019-02-08T09:26:22.236Z,8.20
2019-02-08T09:29:19.071Z,8.10
2019-02-08T09:32:07.464Z,8.10
2019-02-08T09:34:49.367Z,8.30
2019-02-08T09:37:19.254Z,8.20
2019-02-08T09:39:58.129Z,8.30
2019-02-08T09:42:40.269Z,8.30
2019-02-08T09:45:45.720Z,8.40
2019-02-08T09:48:36.577Z,8.50
2019-02-08T09:51:06.395Z,8.50
2019-02-08T09:53:41.783Z,8.60
2019-02-08T09:56:11.639Z,8.50
2019-02-08T09:58:47.767Z,8.50
2019-02-08T10:01:43.827Z,8.50
2019-02-08T10:04:30.584Z,8.50
2019-02-08T10:07:09.139Z,8.60
2019-02-08T10:09:47.572Z,8.60
2019-02-08T10:12:36.892Z,8.60
2019-02-08T10:15:32.880Z,8.60
2019-02-08T10:18:02.699Z,8.60
2019-02-08T10:20:44.636Z,8.70
2019-02-08T10:23:43.251Z,8.90
2019-02-08T10:26:33.118Z,8.90
2019-02-08T10:29:25.828Z,8.80
2019-02-08T10:32:13.641Z,8.80
2019-02-08T10:34:55.764Z,8.70
2019-02-08T10:37:37.050Z,8.60
2019-02-08T10:40:26.747Z,8.70
2019-02-08T10:43:31.753Z,8.70
2019-02-08T10:46:10.847Z,9.00
2019-02-08T10:49:11.397Z,9.20
2019-02-08T10:52:04.355Z,9.30
2019-02-08T10:54:36.715Z,9.50
2019-02-08T10:57:23.404Z,9.70
2019-02-08T11:00:13.071Z,9.60
2019-02-08T11:03:16.542Z,9.40
2019-02-08T11:06:13.540Z,9.30
2019-02-08T11:09:03.988Z,9.20
2019-02-08T11:11:50.483Z,9.10
2019-02-08T11:14:40.074Z,9.20
2019-02-08T11:17:21.663Z,9.20
2019-02-08T11:19:53.106Z,9.30
2019-02-08T11:22:19.140Z,9.30
2019-02-08T11:24:45.188Z,9.30
2019-02-08T11:27:11.231Z,9.40
2019-02-08T11:29:37.243Z,9.50
2019-02-08T11:32:03.259Z,9.60
2019-02-08T11:34:29.299Z,9.50
2019-02-08T11:36:55.312Z,9.30
2019-02-08T11:39:21.363Z,9.30
2019-02-08T11:41:47.406Z,9.20
2019-02-08T11:44:13.515Z,9.20
2019-02-08T11:46:39.540Z,9.10
2019-02-08T11:49:05.598Z,9.20
2019-02-08T11:51:31.615Z,9.20
2019-02-08T11:53:57.631Z,9.10
2019-02-08T11:56:29.918Z,9.10
2019-02-08T11:58:51.677Z,8.90
2019-02-08T12:01:17.707Z,8.90
2019-02-08T12:03:43.723Z,8.80
2019-02-08T12:06:09.793Z,8.90
2019-02-08T12:08:35.821Z,8.90
2019-02-08T12:11:01.832Z,9.00
2019-02-08T12:13:27.863Z,9.10
2019-02-08T12:15:53.923Z,9.10
2019-02-08T12:18:19.955Z,9.20
2019-02-08T12:20:45.967Z,9.20
2019-02-08T12:23:12.001Z,9.20
2019-02-08T12:25:38.064Z,9.20
2019-02-08T12:28:04.062Z,9.30
2019-02-08T12:30:36.567Z,9.30
2019-02-08T12:33:03.328Z,9.40
2019-02-08T12:35:29.358Z,9.50
2019-02-08T12:37:55.385Z,9.50
2019-02-08T12:40:21.469Z,9.50
2019-02-08T12:42:47.576Z,9.50
2019-02-08T12:45:15.415Z,9.50
2019-02-08T12:47:41.476Z,9.70
2019-02-08T12:50:11.206Z,9.80
2019-02-08T12:52:37.232Z,9.90
2019-02-08T12:55:06.460Z,10.10
2019-02-08T12:57:34.495Z,10.30
2019-02-08T13:00:26.441Z,10.10
2019-02-08T13:02:52.476Z,10.10
2019-02-08T13:05:18.502Z,10.10
2019-02-08T13:07:44.548Z,10.10
2019-02-08T13:10:13.964Z,10.10
2019-02-08T13:12:40.024Z,10.20
2019-02-08T13:15:09.463Z,10.20
2019-02-08T13:17:35.496Z,10.30
2019-02-08T13:20:02.726Z,10.40
2019-02-08T13:22:28.740Z,10.40
2019-02-08T13:24:54.771Z,10.30
2019-02-08T13:27:20.784Z,10.30
2019-02-08T13:29:46.840Z,10.40
2019-02-08T13:32:12.891Z,10.50
2019-02-08T13:34:38.912Z,10.50
2019-02-08T13:37:04.920Z,10.50
2019-02-08T13:39:30.968Z,10.40
2019-02-08T13:41:56.988Z,10.50
2019-02-08T13:44:23.055Z,10.60
2019-02-08T13:46:49.085Z,10.70
2019-02-08T13:49:15.123Z,10.70
2019-02-08T13:51:41.135Z,10.60
2019-02-08T13:54:07.175Z,10.60
2019-02-08T13:56:33.203Z,10.50
2019-02-08T13:58:59.248Z,10.50
2019-02-08T14:01:25.265Z,10.50
2019-02-08T14:03:51.285Z,10.50
2019-02-08T14:06:17.324Z,10.50
2019-02-08T14:08:43.335Z,10.60
2019-02-08T14:11:09.367Z,10.60
2019-02-08T14:13:40.507Z,10.60
2019-02-08T14:16:03.320Z,10.70
2019-02-08T14:18:29.395Z,10.70
2019-02-08T14:20:55.475Z,10.70
2019-02-08T14:23:21.508Z,10.60
2019-02-08T14:25:47.540Z,10.60
2019-02-08T14:28:13.551Z,10.50
2019-02-08T14:30:41.263Z,10.40
2019-02-08T14:33:07.281Z,10.20
2019-02-08T14:35:33.341Z,10.20
2019-02-08T14:38:01.031Z,10.20
2019-02-08T14:40:28.554Z,10.30
2019-02-08T14:42:54.588Z,10.20
2019-02-08T14:45:20.615Z,10.10
2019-02-08T14:47:46.725Z,10.00
2019-02-08T14:50:19.315Z,9.90
2019-02-08T14:52:45.348Z,9.90
2019-02-08T14:55:11.404Z,10.00
2019-02-08T14:57:37.444Z,10.00
2019-02-08T15:00:12.265Z,9.90
2019-02-08T15:02:39.779Z,9.90
2019-02-08T15:05:08.873Z,9.90
2019-02-08T15:07:34.901Z,9.90
2019-02-08T15:10:00.927Z,9.90
2019-02-08T15:12:26.964Z,9.80
2019-02-08T15:14:52.981Z,9.80
2019-02-08T15:17:19.011Z,9.80
2019-02-08T15:19:45.129Z,9.80
2019-02-08T15:22:11.164Z,9.70
2019-02-08T15:24:37.187Z,9.80
2019-02-08T15:27:03.204Z,9.70
2019-02-08T15:29:29.255Z,9.70
2019-02-08T15:31:55.371Z,9.70
2019-02-08T15:34:21.404Z,9.70
2019-02-08T15:36:49.394Z,9.70
2019-02-08T15:39:15.375Z,9.80
2019-02-08T15:41:41.417Z,9.80
2019-02-08T15:44:07.476Z,9.80
2019-02-08T15:46:33.572Z,9.80
2019-02-08T15:48:59.727Z,9.70
2019-02-08T15:51:25.739Z,9.70
2019-02-08T15:53:51.798Z,9.60
2019-02-08T15:56:17.811Z,9.60
2019-02-08T15:58:43.855Z,9.50
2019-02-08T16:01:09.868Z,9.50
2019-02-08T16:03:35.895Z,9.50
2019-02-08T16:06:02.148Z,9.40
2019-02-08T16:08:28.159Z,9.40
2019-02-08T16:10:54.171Z,9.30
2019-02-08T16:13:20.205Z,9.30
2019-02-08T16:15:46.216Z,9.20
2019-02-08T16:18:12.241Z,9.20
2019-02-08T16:20:38.275Z,9.20
2019-02-08T16:23:04.292Z,9.20
2019-02-08T16:25:30.601Z,9.20
2019-02-08T16:27:56.636Z,9.20
2019-02-08T16:30:24.855Z,9.20
2019-02-08T16:32:50.903Z,9.20
2019-02-08T16:35:19.826Z,9.20
2019-02-08T16:37:46.071Z,9.10
2019-02-08T16:40:17.571Z,9.00
2019-02-08T16:42:43.624Z,8.90
2019-02-08T16:45:18.508Z,8.90
2019-02-08T16:47:44.540Z,8.90
2019-02-08T16:50:16.616Z,8.90
2019-02-08T16:52:42.628Z,8.80
2019-02-08T16:55:10.191Z,8.80
2019-02-08T16:57:36.203Z,8.80
2019-02-08T17:00:14.902Z,8.80
2019-02-08T17:02:40.912Z,8.80
2019-02-08T17:05:09.588Z,8.80
2019-02-08T17:07:35.595Z,8.80
2019-02-08T17:10:03.935Z,8.80
2019-02-08T17:12:30.042Z,8.80
2019-02-08T17:14:56.075Z,8.80
2019-02-08T17:17:22.119Z,8.70
2019-02-08T17:19:48.131Z,8.70
2019-02-08T17:22:14.231Z,8.70
2019-02-08T17:24:40.303Z,8.60
2019-02-08T17:27:06.316Z,8.60
2019-02-08T17:29:33.215Z,8.60
2019-02-08T17:31:59.236Z,8.60
2019-02-08T17:34:25.302Z,8.60
2019-02-08T17:36:51.302Z,8.60
2019-02-08T17:39:17.348Z,8.60
2019-02-08T17:41:43.383Z,8.60
2019-02-08T17:44:09.499Z,8.60
2019-02-08T17:46:35.535Z,8.50
2019-02-08T17:49:54.639Z,8.50
2019-02-08T17:52:01.635Z,8.40
2019-02-08T17:54:27.654Z,8.40
2019-02-08T17:56:53.824Z,8.40
2019-02-08T17:59:19.844Z,8.40
2019-02-08T18:01:45.883Z,8.40
2019-02-08T18:04:11.908Z,8.30
2019-02-08T18:06:37.971Z,8.30
2019-02-08T18:09:07.425Z,8.30
2019-02-08T18:11:33.432Z,8.30
2019-02-08T18:13:59.468Z,8.30
2019-02-08T18:16:25.500Z,8.30
2019-02-08T18:18:51.531Z,8.30
2019-02-08T18:21:37.424Z,8.30
2019-02-08T18:24:03.655Z,8.30
2019-02-08T18:26:29.668Z,8.30
2019-02-08T18:28:55.803Z,8.20
2019-02-08T18:31:21.839Z,8.20
2019-02-08T18:33:47.923Z,8.20
2019-02-08T18:36:14.009Z,8.20
2019-02-08T18:38:40.035Z,8.20
2019-02-08T18:41:06.068Z,8.20
2019-02-08T18:43:32.083Z,8.20
2019-02-08T18:45:58.112Z,8.20
2019-02-08T18:48:24.147Z,8.30
2019-02-08T18:50:52.176Z,8.30
2019-02-08T18:53:18.255Z,8.40
2019-02-08T18:55:44.291Z,8.40
2019-02-08T18:58:10.300Z,8.40
2019-02-08T19:00:40.325Z,8.30
2019-02-08T19:03:06.555Z,8.20
2019-02-08T19:05:32.584Z,8.20
2019-02-08T19:07:58.597Z,8.10
2019-02-08T19:10:24.627Z,8.10
2019-02-08T19:16:31.430Z,8.20
2019-02-08T19:18:57.484Z,8.20
2019-02-08T19:21:24.358Z,8.20
2019-02-08T19:23:50.467Z,8.30
2019-02-08T19:26:16.495Z,8.20
2019-02-08T19:28:42.508Z,8.10
2019-02-08T19:31:08.551Z,8.10
2019-02-08T19:33:34.628Z,8.00
2019-02-08T19:36:00.659Z,7.90
2019-02-08T19:38:26.667Z,7.90
2019-02-08T19:40:52.695Z,7.80
2019-02-08T19:43:18.772Z,7.70
2019-02-08T19:45:44.864Z,7.70
2019-02-08T19:48:10.879Z,7.60
2019-02-08T19:50:38.900Z,7.60
2019-02-08T19:53:05.757Z,7.60
2019-02-08T19:55:31.808Z,7.60
2019-02-08T19:57:57.915Z,7.60
2019-02-08T20:00:36.699Z,7.60
2019-02-08T20:03:03.834Z,7.50
2019-02-08T20:05:29.943Z,7.50
2019-02-08T20:07:55.987Z,7.40
2019-02-08T20:10:28.943Z,7.40
2019-02-08T20:12:54.979Z,7.40
2019-02-08T20:15:20.988Z,7.40
2019-02-08T20:17:47.048Z,7.30
2019-02-08T20:20:13.143Z,7.30
2019-02-08T20:22:39.159Z,7.40
2019-02-08T20:25:09.711Z,7.50
2019-02-08T20:27:35.773Z,7.70
2019-02-08T20:30:02.039Z,7.80
2019-02-08T20:32:28.087Z,7.80
2019-02-08T20:34:54.114Z,7.90
2019-02-08T20:37:20.167Z,7.90
2019-02-08T20:39:46.208Z,8.00
2019-02-08T20:42:12.235Z,8.00
2019-02-08T20:44:38.272Z,7.90
2019-02-08T20:47:04.283Z,7.90
2019-02-08T20:49:30.320Z,8.00
2019-02-08T20:51:56.356Z,8.00
2019-02-08T20:54:22.438Z,8.00
2019-02-08T20:56:48.451Z,8.00
2019-02-08T20:59:14.490Z,8.00
2019-02-08T21:01:40.535Z,8.10
2019-02-08T21:04:06.616Z,8.10
2019-02-08T21:06:32.647Z,8.10
2019-02-08T21:08:58.655Z,8.10
2019-02-08T21:11:24.688Z,8.10
2019-02-08T21:13:50.723Z,8.20
2019-02-08T21:16:16.744Z,8.10
2019-02-08T21:18:42.959Z,8.10
2019-02-08T21:24:49.931Z,8.20
2019-02-08T21:27:15.939Z,8.30
2019-02-08T21:29:42.054Z,8.20
2019-02-08T21:32:08.207Z,8.20
2019-02-08T21:34:34.294Z,8.30
2019-02-08T21:37:02.051Z,8.30
2019-02-08T21:39:28.074Z,8.20
2019-02-08T21:41:54.094Z,8.20
2019-02-08T21:44:20.155Z,8.20
2019-02-08T21:46:46.203Z,8.20
2019-02-08T21:49:12.755Z,8.20
2019-02-08T21:51:38.790Z,8.10
2019-02-08T21:54:04.836Z,8.10
2019-02-08T21:56:30.878Z,8.10
2019-02-08T21:58:56.991Z,8.10
2019-02-08T22:01:23.025Z,8.20
2019-02-08T22:03:49.240Z,8.20
2019-02-08T22:06:15.336Z,8.20
2019-02-08T22:08:42.407Z,8.20
2019-02-08T22:11:08.427Z,8.20
2019-02-08T22:13:35.496Z,8.20
2019-02-08T22:16:01.514Z,8.20
2019-02-08T22:18:28.627Z,8.10
2019-02-08T22:20:54.679Z,8.10
2019-02-08T22:23:20.704Z,8.10
2019-02-08T22:25:46.729Z,8.10
2019-02-08T22:28:12.755Z,8.10
2019-02-08T22:30:38.802Z,8.10
2019-02-08T22:33:07.548Z,8.10
2019-02-08T22:35:33.567Z,8.20
2019-02-08T22:37:59.684Z,8.10
2019-02-08T22:40:25.711Z,8.20
2019-02-08T22:42:51.749Z,8.20
2019-02-08T22:45:26.171Z,8.20
2019-02-08T22:47:52.191Z,8.20
2019-02-08T22:50:18.304Z,8.20
2019-02-08T22:52:44.307Z,8.20
2019-02-08T22:55:14.139Z,8.20
2019-02-08T22:57:40.187Z,8.30
2019-02-08T23:00:34.539Z,8.20
2019-02-08T23:03:02.015Z,8.20
2019-02-08T23:05:28.045Z,8.20
2019-02-08T23:07:54.067Z,8.20
2019-02-08T23:10:20.116Z,8.20
2019-02-08T23:12:46.122Z,8.30
2019-02-08T23:15:12.191Z,8.30
2019-02-08T23:17:38.227Z,8.30
2019-02-08T23:20:07.971Z,8.20
2019-02-08T23:22:53.868Z,8.20
2019-02-08T23:25:19.935Z,8.30
2019-02-08T23:27:45.946Z,8.20
2019-02-08T23:30:15.817Z,8.20
2019-02-08T23:32:41.827Z,8.20
2019-02-08T23:35:09.092Z,8.20
2019-02-08T23:37:35.185Z,8.20
2019-02-08T23:40:01.353Z,8.30
2019-02-08T23:42:27.368Z,8.20
2019-02-08T23:44:53.429Z,8.20
2019-02-08T23:47:19.524Z,8.30
2019-02-08T23:49:45.566Z,8.20
2019-02-08T23:52:11.583Z,8.30
2019-02-08T23:54:37.627Z,8.20
2019-02-08T23:57:03.641Z,8.30
2019-02-08T23:59:29.680Z,8.30
